Amsterdam, Ohio
Current Conditions -  °F | °C
As of 4:53 AM on Sunday 25 Jan 2015 (Local Time) from KHLG Reporting Station
Haze Haze  
Wind Chill: 26°   Ceiling: 900
Heat Index: 32°   Visibility: 5mi
Dew Point: 30°   Wind: 7mph
Humidity: 92%   Direction: 250°WSW
Pressure: 29.74"   Gusts: NA
Location:  40.47°N, 80.92°W
Report Text: KHLG 250953Z 25006KT 5SM BR OVC009 00/M01 A2974 RMK AO2 SLP086 T00001011
Loading
Personal Weather Stations






























Interactive Weather Map New forecast layout! Learn more

10-Day Weather Forecast

Advertisements
Track Severe Weather on mobile